sensor_id;sensor_type;location;lat;lon;timestamp;pressure;altitude;pressure_sealevel;temperature;humidity
75585;BME280;64162;53.508;10.476;2022-10-30T00:01:07;101249.41;;;12.84;86.39
75585;BME280;64162;53.508;10.476;2022-10-30T00:03:32;101246.75;;;12.84;86.70
75585;BME280;64162;53.508;10.476;2022-10-30T00:05:58;101245.06;;;12.83;86.45
75585;BME280;64162;53.508;10.476;2022-10-30T00:08:23;101233.66;;;12.82;86.41
75585;BME280;64162;53.508;10.476;2022-10-30T00:10:52;101232.09;;;12.80;86.26
75585;BME280;64162;53.508;10.476;2022-10-30T00:13:18;101226.81;;;12.80;86.32
75585;BME280;64162;53.508;10.476;2022-10-30T00:15:51;101234.88;;;12.78;86.16
75585;BME280;64162;53.508;10.476;2022-10-30T00:18:18;101236.78;;;12.76;85.80
75585;BME280;64162;53.508;10.476;2022-10-30T00:20:44;101245.69;;;12.75;85.60
75585;BME280;64162;53.508;10.476;2022-10-30T00:23:09;101239.09;;;12.70;85.45
75585;BME280;64162;53.508;10.476;2022-10-30T00:25:35;101252.44;;;12.68;85.31
75585;BME280;64162;53.508;10.476;2022-10-30T00:28:02;101241.28;;;12.65;85.49
75585;BME280;64162;53.508;10.476;2022-10-30T00:30:28;101244.88;;;12.64;85.44
75585;BME280;64162;53.508;10.476;2022-10-30T00:32:53;101249.31;;;12.63;85.41
75585;BME280;64162;53.508;10.476;2022-10-30T00:35:18;101240.44;;;12.64;85.80
75585;BME280;64162;53.508;10.476;2022-10-30T00:37:44;101235.16;;;12.64;85.82
75585;BME280;64162;53.508;10.476;2022-10-30T00:40:14;101233.72;;;12.60;85.38
75585;BME280;64162;53.508;10.476;2022-10-30T00:42:40;101243.44;;;12.60;85.72
75585;BME280;64162;53.508;10.476;2022-10-30T00:45:06;101244.28;;;12.60;85.71
75585;BME280;64162;53.508;10.476;2022-10-30T00:50:08;101246.19;;;12.58;85.42
75585;BME280;64162;53.508;10.476;2022-10-30T00:52:39;101238.41;;;12.56;85.50
75585;BME280;64162;53.508;10.476;2022-10-30T00:55:11;101243.56;;;12.58;85.56
75585;BME280;64162;53.508;10.476;2022-10-30T00:57:38;101237.56;;;12.56;85.95
75585;BME280;64162;53.508;10.476;2022-10-30T01:00:05;101241.41;;;12.52;85.59
75585;BME280;64162;53.508;10.476;2022-10-30T01:02:32;101240.69;;;12.50;85.92
75585;BME280;64162;53.508;10.476;2022-10-30T01:04:58;101242.59;;;12.48;85.35
75585;BME280;64162;53.508;10.476;2022-10-30T01:07:24;101226.13;;;12.44;85.50
75585;BME280;64162;53.508;10.476;2022-10-30T01:09:49;101228.31;;;12.39;85.23
75585;BME280;64162;53.508;10.476;2022-10-30T01:12:15;101233.59;;;12.39;85.51
75585;BME280;64162;53.508;10.476;2022-10-30T01:14:50;101230.94;;;12.39;86.13
75585;BME280;64162;53.508;10.476;2022-10-30T01:20:52;101230.47;;;12.34;85.87
75585;BME280;64162;53.508;10.476;2022-10-30T01:23:44;101225.31;;;12.33;85.91
75585;BME280;64162;53.508;10.476;2022-10-30T01:26:37;101223.00;;;12.28;85.56
75585;BME280;64162;53.508;10.476;2022-10-30T01:35:19;101217.13;;;12.24;86.02
75585;BME280;64162;53.508;10.476;2022-10-30T01:37:56;101217.84;;;12.27;86.14
75585;BME280;64162;53.508;10.476;2022-10-30T01:40:27;101217.13;;;12.24;86.59
75585;BME280;64162;53.508;10.476;2022-10-30T01:42:55;101224.94;;;12.26;86.57
75585;BME280;64162;53.508;10.476;2022-10-30T01:45:37;101215.44;;;12.23;86.38
75585;BME280;64162;53.508;10.476;2022-10-30T01:53:54;101207.28;;;12.27;86.76
75585;BME280;64162;53.508;10.476;2022-10-30T01:56:40;101205.34;;;12.29;86.78
75585;BME280;64162;53.508;10.476;2022-10-30T01:59:30;101208.38;;;12.35;86.99
75585;BME280;64162;53.508;10.476;2022-10-30T02:01:59;101208.84;;;12.40;86.82
75585;BME280;64162;53.508;10.476;2022-10-30T02:04:25;101211.13;;;12.45;86.87
75585;BME280;64162;53.508;10.476;2022-10-30T02:06:51;101200.19;;;12.49;87.10
75585;BME280;64162;53.508;10.476;2022-10-30T02:09:35;101197.91;;;12.56;87.06
75585;BME280;64162;53.508;10.476;2022-10-30T02:12:01;101192.25;;;12.61;86.89
75585;BME280;64162;53.508;10.476;2022-10-30T02:14:32;101199.69;;;12.67;86.96
75585;BME280;64162;53.508;10.476;2022-10-30T02:17:04;101198.47;;;12.71;86.96
75585;BME280;64162;53.508;10.476;2022-10-30T02:19:30;101203.50;;;12.74;86.99
75585;BME280;64162;53.508;10.476;2022-10-30T02:21:56;101200.59;;;12.77;86.95
75585;BME280;64162;53.508;10.476;2022-10-30T02:24:21;101197.00;;;12.78;86.72
75585;BME280;64162;53.508;10.476;2022-10-30T02:26:46;101198.81;;;12.77;86.57
75585;BME280;64162;53.508;10.476;2022-10-30T02:29:12;101199.66;;;12.78;86.64
75585;BME280;64162;53.508;10.476;2022-10-30T02:31:40;101193.41;;;12.79;86.60
75585;BME280;64162;53.508;10.476;2022-10-30T02:34:05;101194.47;;;12.76;86.25
75585;BME280;64162;53.508;10.476;2022-10-30T02:36:31;101194.72;;;12.73;86.26
75585;BME280;64162;53.508;10.476;2022-10-30T02:38:56;101188.72;;;12.71;86.38
75585;BME280;64162;53.508;10.476;2022-10-30T02:41:22;101185.50;;;12.68;86.24
75585;BME280;64162;53.508;10.476;2022-10-30T02:43:49;101186.72;;;12.64;85.96
75585;BME280;64162;53.508;10.476;2022-10-30T02:46:15;101199.22;;;12.62;86.51
75585;BME280;64162;53.508;10.476;2022-10-30T02:48:40;101192.38;;;12.59;86.48
75585;BME280;64162;53.508;10.476;2022-10-30T02:51:06;101191.78;;;12.55;86.17
75585;BME280;64162;53.508;10.476;2022-10-30T02:53:32;101194.06;;;12.49;86.29
75585;BME280;64162;53.508;10.476;2022-10-30T02:56:09;101182.06;;;12.45;86.37
75585;BME280;64162;53.508;10.476;2022-10-30T02:58:35;101186.75;;;12.41;86.29
75585;BME280;64162;53.508;10.476;2022-10-30T03:03:31;101191.19;;;12.30;86.23
75585;BME280;64162;53.508;10.476;2022-10-30T03:05:59;101187.94;;;12.26;86.18
75585;BME280;64162;53.508;10.476;2022-10-30T03:08:24;101199.22;;;12.17;85.80
75585;BME280;64162;53.508;10.476;2022-10-30T03:10:50;101198.63;;;12.13;85.93
75585;BME280;64162;53.508;10.476;2022-10-30T03:13:15;101200.81;;;12.08;86.05
75585;BME280;64162;53.508;10.476;2022-10-30T03:15:40;101196.72;;;12.04;86.03
75585;BME280;64162;53.508;10.476;2022-10-30T03:18:06;101195.41;;;11.99;86.13
75585;BME280;64162;53.508;10.476;2022-10-30T03:20:34;101202.34;;;11.88;85.32
75585;BME280;64162;53.508;10.476;2022-10-30T03:22:59;101213.03;;;11.87;85.79
75585;BME280;64162;53.508;10.476;2022-10-30T03:25:25;101210.72;;;11.82;86.11
75585;BME280;64162;53.508;10.476;2022-10-30T03:27:54;101207.81;;;11.74;85.55
75585;BME280;64162;53.508;10.476;2022-10-30T03:30:19;101209.94;;;11.69;85.63
75585;BME280;64162;53.508;10.476;2022-10-30T03:32:46;101216.53;;;11.64;85.59
75585;BME280;64162;53.508;10.476;2022-10-30T03:35:12;101211.72;;;11.57;85.39
75585;BME280;64162;53.508;10.476;2022-10-30T03:37:37;101215.31;;;11.56;85.66
75585;BME280;64162;53.508;10.476;2022-10-30T03:40:03;101214.84;;;11.51;85.83
75585;BME280;64162;53.508;10.476;2022-10-30T03:42:31;101203.78;;;11.46;85.73
75585;BME280;64162;53.508;10.476;2022-10-30T03:44:56;101209.41;;;11.42;85.32
75585;BME280;64162;53.508;10.476;2022-10-30T03:47:22;101223.66;;;11.39;85.41
75585;BME280;64162;53.508;10.476;2022-10-30T03:49:47;101220.31;;;11.37;85.62
75585;BME280;64162;53.508;10.476;2022-10-30T03:52:17;101219.47;;;11.37;85.86
75585;BME280;64162;53.508;10.476;2022-10-30T03:54:42;101209.13;;;11.34;85.72
75585;BME280;64162;53.508;10.476;2022-10-30T03:57:10;101209.34;;;11.31;85.93
75585;BME280;64162;53.508;10.476;2022-10-30T03:59:45;101211.28;;;11.29;85.92
75585;BME280;64162;53.508;10.476;2022-10-30T04:02:34;101216.16;;;11.22;85.65
75585;BME280;64162;53.508;10.476;2022-10-30T04:04:59;101217.94;;;11.21;85.80
75585;BME280;64162;53.508;10.476;2022-10-30T04:07:25;101213.00;;;11.17;85.58
75585;BME280;64162;53.508;10.476;2022-10-30T04:09:50;101211.22;;;11.17;85.92
75585;BME280;64162;53.508;10.476;2022-10-30T04:12:17;101213.22;;;11.14;85.93
75585;BME280;64162;53.508;10.476;2022-10-30T04:14:43;101209.88;;;11.12;85.97
75585;BME280;64162;53.508;10.476;2022-10-30T04:17:08;101209.13;;;11.10;85.80
75585;BME280;64162;53.508;10.476;2022-10-30T04:19:34;101204.09;;;11.07;85.77
75585;BME280;64162;53.508;10.476;2022-10-30T04:21:59;101205.25;;;11.03;85.66
75585;BME280;64162;53.508;10.476;2022-10-30T04:24:24;101210.16;;;10.96;85.74
75585;BME280;64162;53.508;10.476;2022-10-30T04:26:53;101211.00;;;10.97;85.71
75585;BME280;64162;53.508;10.476;2022-10-30T04:29:19;101212.19;;;10.93;85.55
75585;BME280;64162;53.508;10.476;2022-10-30T04:31:44;101216.72;;;10.90;86.07
75585;BME280;64162;53.508;10.476;2022-10-30T04:34:10;101217.91;;;10.86;85.37
75585;BME280;64162;53.508;10.476;2022-10-30T04:36:36;101217.91;;;10.86;85.93
75585;BME280;64162;53.508;10.476;2022-10-30T04:39:02;101213.81;;;10.82;85.53
75585;BME280;64162;53.508;10.476;2022-10-30T04:41:28;101214.88;;;10.80;85.79
75585;BME280;64162;53.508;10.476;2022-10-30T04:44:00;101215.94;;;10.77;85.93
75585;BME280;64162;53.508;10.476;2022-10-30T04:46:30;101219.50;;;10.76;86.13
75585;BME280;64162;53.508;10.476;2022-10-30T04:49:02;101212.16;;;10.69;85.38
75585;BME280;64162;53.508;10.476;2022-10-30T04:51:27;101216.06;;;10.63;85.03
75585;BME280;64162;53.508;10.476;2022-10-30T04:53:52;101209.84;;;10.64;85.63
75585;BME280;64162;53.508;10.476;2022-10-30T04:56:19;101208.38;;;10.60;85.31
75585;BME280;64162;53.508;10.476;2022-10-30T04:58:44;101198.91;;;10.57;85.86
75585;BME280;64162;53.508;10.476;2022-10-30T05:01:10;101195.63;;;10.54;85.65
75585;BME280;64162;53.508;10.476;2022-10-30T05:03:36;101187.94;;;10.51;85.73
75585;BME280;64162;53.508;10.476;2022-10-30T05:06:14;101197.75;;;10.49;85.53
75585;BME280;64162;53.508;10.476;2022-10-30T05:08:44;101203.03;;;10.49;86.09
75585;BME280;64162;53.508;10.476;2022-10-30T05:11:21;101204.19;;;10.45;85.66
75585;BME280;64162;53.508;10.476;2022-10-30T05:13:47;101211.25;;;10.44;86.15
75585;BME280;64162;53.508;10.476;2022-10-30T05:16:12;101206.19;;;10.41;85.91
75585;BME280;64162;53.508;10.476;2022-10-30T05:18:38;101210.63;;;10.41;85.76
75585;BME280;64162;53.508;10.476;2022-10-30T05:21:03;101214.25;;;10.40;86.15
75585;BME280;64162;53.508;10.476;2022-10-30T05:23:29;101204.66;;;10.39;86.06
75585;BME280;64162;53.508;10.476;2022-10-30T05:25:54;101202.22;;;10.36;85.77
75585;BME280;64162;53.508;10.476;2022-10-30T05:28:20;101195.38;;;10.33;85.75
75585;BME280;64162;53.508;10.476;2022-10-30T05:30:52;101198.88;;;10.34;86.15
75585;BME280;64162;53.508;10.476;2022-10-30T05:33:49;101191.19;;;10.31;86.12
75585;BME280;64162;53.508;10.476;2022-10-30T05:36:15;101191.06;;;10.32;85.99
75585;BME280;64162;53.508;10.476;2022-10-30T05:38:41;101197.50;;;10.28;85.86
75585;BME280;64162;53.508;10.476;2022-10-30T05:41:10;101196.66;;;10.28;86.01
75585;BME280;64162;53.508;10.476;2022-10-30T05:43:35;101204.56;;;10.28;85.72
75585;BME280;64162;53.508;10.476;2022-10-30T05:46:01;101206.13;;;10.30;86.62
75585;BME280;64162;53.508;10.476;2022-10-30T05:48:26;101201.81;;;10.29;86.16
75585;BME280;64162;53.508;10.476;2022-10-30T05:50:54;101203.72;;;10.27;85.79
75585;BME280;64162;53.508;10.476;2022-10-30T05:53:24;101207.94;;;10.30;86.20
75585;BME280;64162;53.508;10.476;2022-10-30T05:55:55;101212.56;;;10.26;85.80
75585;BME280;64162;53.508;10.476;2022-10-30T05:58:22;101209.94;;;10.26;86.00
75585;BME280;64162;53.508;10.476;2022-10-30T06:00:48;101212.78;;;10.23;85.54
75585;BME280;64162;53.508;10.476;2022-10-30T06:03:20;101207.72;;;10.20;85.59
75585;BME280;64162;53.508;10.476;2022-10-30T06:05:46;101209.59;;;10.18;85.16
75585;BME280;64162;53.508;10.476;2022-10-30T06:08:13;101217.59;;;10.16;85.15
75585;BME280;64162;53.508;10.476;2022-10-30T06:10:41;101220.97;;;10.18;85.80
75585;BME280;64162;53.508;10.476;2022-10-30T06:13:15;101225.31;;;10.19;85.73
75585;BME280;64162;53.508;10.476;2022-10-30T06:16:13;101222.88;;;10.16;85.58
75585;BME280;64162;53.508;10.476;2022-10-30T06:18:55;101230.75;;;10.16;85.03
75585;BME280;64162;53.508;10.476;2022-10-30T06:21:22;101227.94;;;10.19;85.63
75585;BME280;64162;53.508;10.476;2022-10-30T06:24:13;101232.44;;;10.17;85.60
75585;BME280;64162;53.508;10.476;2022-10-30T06:26:59;101242.97;;;10.17;85.20
75585;BME280;64162;53.508;10.476;2022-10-30T06:29:24;101238.38;;;10.21;85.09
75585;BME280;64162;53.508;10.476;2022-10-30T06:31:50;101244.28;;;10.24;85.10
75585;BME280;64162;53.508;10.476;2022-10-30T06:34:15;101242.47;;;10.25;84.92
75585;BME280;64162;53.508;10.476;2022-10-30T06:36:42;101245.00;;;10.27;84.43
75585;BME280;64162;53.508;10.476;2022-10-30T06:39:07;101249.84;;;10.33;84.46
75585;BME280;64162;53.508;10.476;2022-10-30T06:41:42;101249.44;;;10.39;84.03
75585;BME280;64162;53.508;10.476;2022-10-30T06:44:24;101245.59;;;10.43;83.49
75585;BME280;64162;53.508;10.476;2022-10-30T06:46:52;101242.44;;;10.50;83.67
75585;BME280;64162;53.508;10.476;2022-10-30T06:49:17;101247.91;;;10.60;84.58
75585;BME280;64162;53.508;10.476;2022-10-30T06:51:42;101245.47;;;10.70;85.05
75585;BME280;64162;53.508;10.476;2022-10-30T06:54:08;101245.03;;;10.76;84.46
75585;BME280;64162;53.508;10.476;2022-10-30T06:56:36;101242.69;;;10.84;84.44
75585;BME280;64162;53.508;10.476;2022-10-30T06:59:22;101240.13;;;10.95;84.38
75585;BME280;64162;53.508;10.476;2022-10-30T07:01:54;101251.44;;;11.08;84.44
75585;BME280;64162;53.508;10.476;2022-10-30T07:04:21;101252.25;;;11.21;85.15
75585;BME280;64162;53.508;10.476;2022-10-30T07:06:47;101252.41;;;11.31;84.87
75585;BME280;64162;53.508;10.476;2022-10-30T07:09:12;101252.34;;;11.44;84.51
75585;BME280;64162;53.508;10.476;2022-10-30T07:11:38;101254.06;;;11.56;84.45
75585;BME280;64162;53.508;10.476;2022-10-30T07:14:28;101265.16;;;11.72;85.15
75585;BME280;64162;53.508;10.476;2022-10-30T07:17:12;101258.88;;;11.86;84.95
75585;BME280;64162;53.508;10.476;2022-10-30T07:19:40;101263.34;;;11.97;84.62
75585;BME280;64162;53.508;10.476;2022-10-30T07:22:05;101268.66;;;12.08;84.30
75585;BME280;64162;53.508;10.476;2022-10-30T07:24:32;101269.34;;;12.21;84.47
75585;BME280;64162;53.508;10.476;2022-10-30T07:27:16;101274.44;;;12.35;84.80
75585;BME280;64162;53.508;10.476;2022-10-30T07:29:48;101271.31;;;12.41;84.40
75585;BME280;64162;53.508;10.476;2022-10-30T07:32:40;101269.03;;;12.48;83.81
75585;BME280;64162;53.508;10.476;2022-10-30T07:35:13;101259.78;;;12.53;83.58
75585;BME280;64162;53.508;10.476;2022-10-30T07:38:03;101258.22;;;12.62;83.68
75585;BME280;64162;53.508;10.476;2022-10-30T07:40:39;101263.88;;;12.69;83.75
75585;BME280;64162;53.508;10.476;2022-10-30T07:43:11;101263.59;;;12.72;83.78
75585;BME280;64162;53.508;10.476;2022-10-30T07:45:53;101256.72;;;12.80;83.96
75585;BME280;64162;53.508;10.476;2022-10-30T07:48:35;101264.66;;;12.80;83.64
75585;BME280;64162;53.508;10.476;2022-10-30T07:51:21;101260.69;;;12.86;83.69
75585;BME280;64162;53.508;10.476;2022-10-30T07:53:47;101262.00;;;12.92;84.00
75585;BME280;64162;53.508;10.476;2022-10-30T07:56:13;101267.91;;;12.95;84.19
75585;BME280;64162;53.508;10.476;2022-10-30T07:58:51;101261.66;;;12.96;83.83
75585;BME280;64162;53.508;10.476;2022-10-30T08:01:36;101275.09;;;13.04;83.96
75585;BME280;64162;53.508;10.476;2022-10-30T08:04:25;101277.25;;;13.10;84.13
75585;BME280;64162;53.508;10.476;2022-10-30T08:06:56;101273.41;;;13.14;84.33
75585;BME280;64162;53.508;10.476;2022-10-30T08:09:21;101279.19;;;13.19;83.80
75585;BME280;64162;53.508;10.476;2022-10-30T08:11:47;101279.53;;;13.26;84.18
75585;BME280;64162;53.508;10.476;2022-10-30T08:14:12;101281.53;;;13.34;83.85
75585;BME280;64162;53.508;10.476;2022-10-30T08:16:38;101290.66;;;13.41;83.90
75585;BME280;64162;53.508;10.476;2022-10-30T08:19:03;101293.75;;;13.46;83.31
75585;BME280;64162;53.508;10.476;2022-10-30T08:21:29;101294.81;;;13.54;83.44
75585;BME280;64162;53.508;10.476;2022-10-30T08:23:57;101296.59;;;13.65;83.33
75585;BME280;64162;53.508;10.476;2022-10-30T08:26:26;101292.78;;;13.79;83.57
75585;BME280;64162;53.508;10.476;2022-10-30T08:28:51;101292.59;;;13.92;83.67
75585;BME280;64162;53.508;10.476;2022-10-30T08:31:17;101291.56;;;14.04;83.28
75585;BME280;64162;53.508;10.476;2022-10-30T08:34:18;101285.28;;;14.26;83.41
75585;BME280;64162;53.508;10.476;2022-10-30T08:36:50;101294.47;;;14.42;83.16
75585;BME280;64162;53.508;10.476;2022-10-30T08:39:16;101290.22;;;14.61;83.34
75585;BME280;64162;53.508;10.476;2022-10-30T08:41:56;101282.19;;;14.81;82.98
75585;BME280;64162;53.508;10.476;2022-10-30T08:44:22;101288.81;;;14.97;82.85
75585;BME280;64162;53.508;10.476;2022-10-30T08:47:20;101289.00;;;15.24;82.62
75585;BME280;64162;53.508;10.476;2022-10-30T08:49:45;101297.97;;;15.42;82.49
75585;BME280;64162;53.508;10.476;2022-10-30T08:52:13;101297.00;;;15.63;82.12
75585;BME280;64162;53.508;10.476;2022-10-30T08:54:38;101299.25;;;15.77;81.50
75585;BME280;64162;53.508;10.476;2022-10-30T08:57:04;101297.72;;;15.84;81.39
75585;BME280;64162;53.508;10.476;2022-10-30T08:59:30;101294.91;;;16.05;80.94
75585;BME280;64162;53.508;10.476;2022-10-30T09:01:58;101295.25;;;16.19;80.26
75585;BME280;64162;53.508;10.476;2022-10-30T09:04:43;101297.63;;;16.32;80.16
75585;BME280;64162;53.508;10.476;2022-10-30T09:07:27;101294.09;;;16.41;79.50
75585;BME280;64162;53.508;10.476;2022-10-30T09:10:31;101293.50;;;16.47;79.06
75585;BME280;64162;53.508;10.476;2022-10-30T09:12:57;101283.56;;;16.49;78.97
75585;BME280;64162;53.508;10.476;2022-10-30T09:15:24;101289.03;;;16.48;78.19
75585;BME280;64162;53.508;10.476;2022-10-30T09:17:57;101294.91;;;16.51;79.03
75585;BME280;64162;53.508;10.476;2022-10-30T09:20:23;101285.50;;;16.57;78.53
75585;BME280;64162;53.508;10.476;2022-10-30T09:22:49;101288.31;;;16.56;78.47
75585;BME280;64162;53.508;10.476;2022-10-30T09:25:15;101296.69;;;16.61;78.24
75585;BME280;64162;53.508;10.476;2022-10-30T09:27:47;101296.13;;;16.57;78.13
75585;BME280;64162;53.508;10.476;2022-10-30T09:30:14;101301.16;;;16.60;78.18
75585;BME280;64162;53.508;10.476;2022-10-30T09:32:42;101302.84;;;16.61;78.11
75585;BME280;64162;53.508;10.476;2022-10-30T09:35:11;101305.50;;;16.61;77.84
75585;BME280;64162;53.508;10.476;2022-10-30T09:37:38;101309.00;;;16.62;78.07
75585;BME280;64162;53.508;10.476;2022-10-30T09:40:10;101306.09;;;16.65;78.02
75585;BME280;64162;53.508;10.476;2022-10-30T09:42:46;101303.28;;;16.66;77.75
75585;BME280;64162;53.508;10.476;2022-10-30T09:45:38;101302.59;;;16.64;77.74
75585;BME280;64162;53.508;10.476;2022-10-30T09:48:27;101297.38;;;16.72;77.96
75585;BME280;64162;53.508;10.476;2022-10-30T09:56:36;101298.72;;;16.76;78.31
75585;BME280;64162;53.508;10.476;2022-10-30T10:02:03;101298.00;;;16.84;78.22
75585;BME280;64162;53.508;10.476;2022-10-30T10:04:48;101308.66;;;16.84;77.96
75585;BME280;64162;53.508;10.476;2022-10-30T10:07:39;101302.88;;;16.89;78.40
75585;BME280;64162;53.508;10.476;2022-10-30T10:10:34;101306.09;;;16.92;77.69
75585;BME280;64162;53.508;10.476;2022-10-30T10:13:24;101311.81;;;16.97;77.91
75585;BME280;64162;53.508;10.476;2022-10-30T10:15:58;101310.88;;;16.89;78.38
75585;BME280;64162;53.508;10.476;2022-10-30T10:18:34;101309.72;;;16.91;77.79
75585;BME280;64162;53.508;10.476;2022-10-30T10:21:09;101310.81;;;16.98;77.94
75585;BME280;64162;53.508;10.476;2022-10-30T10:23:47;101300.41;;;17.05;77.49
75585;BME280;64162;53.508;10.476;2022-10-30T10:31:48;101290.41;;;17.16;77.05
75585;BME280;64162;53.508;10.476;2022-10-30T10:34:31;101296.94;;;17.22;76.96
75585;BME280;64162;53.508;10.476;2022-10-30T10:37:09;101291.63;;;17.22;77.03
75585;BME280;64162;53.508;10.476;2022-10-30T10:39:59;101296.50;;;17.27;77.29
75585;BME280;64162;53.508;10.476;2022-10-30T10:50:51;101293.13;;;17.42;77.36
75585;BME280;64162;53.508;10.476;2022-10-30T10:53:23;101284.69;;;17.47;77.00
75585;BME280;64162;53.508;10.476;2022-10-30T10:55:53;101281.72;;;17.50;76.99
75585;BME280;64162;53.508;10.476;2022-10-30T10:58:57;101282.66;;;17.59;76.96
75585;BME280;64162;53.508;10.476;2022-10-30T11:01:48;101276.03;;;17.63;77.04
75585;BME280;64162;53.508;10.476;2022-10-30T11:07:24;101267.13;;;17.72;76.96
75585;BME280;64162;53.508;10.476;2022-10-30T11:09:55;101261.50;;;17.75;76.63
75585;BME280;64162;53.508;10.476;2022-10-30T11:12:26;101270.34;;;17.75;76.20
75585;BME280;64162;53.508;10.476;2022-10-30T11:14:53;101269.50;;;17.75;76.26
75585;BME280;64162;53.508;10.476;2022-10-30T11:17:23;101268.19;;;17.79;76.00
75585;BME280;64162;53.508;10.476;2022-10-30T11:19:57;101261.41;;;17.85;76.60
75585;BME280;64162;53.508;10.476;2022-10-30T11:22:32;101265.91;;;17.84;76.53
75585;BME280;64162;53.508;10.476;2022-10-30T11:27:53;101265.94;;;17.92;76.83
75585;BME280;64162;53.508;10.476;2022-10-30T11:30:21;101267.47;;;17.95;76.52
75585;BME280;64162;53.508;10.476;2022-10-30T11:32:47;101258.47;;;17.96;76.24
75585;BME280;64162;53.508;10.476;2022-10-30T11:35:15;101262.88;;;18.05;75.83
75585;BME280;64162;53.508;10.476;2022-10-30T11:37:42;101262.41;;;18.09;75.70
75585;BME280;64162;53.508;10.476;2022-10-30T11:40:19;101257.13;;;18.18;75.61
75585;BME280;64162;53.508;10.476;2022-10-30T11:42:54;101252.31;;;18.21;75.15
75585;BME280;64162;53.508;10.476;2022-10-30T11:45:28;101256.34;;;18.25;75.18
75585;BME280;64162;53.508;10.476;2022-10-30T11:47:56;101265.34;;;18.24;74.99
75585;BME280;64162;53.508;10.476;2022-10-30T11:50:25;101256.34;;;18.25;74.77
75585;BME280;64162;53.508;10.476;2022-10-30T11:52:55;101262.72;;;18.32;74.88
75585;BME280;64162;53.508;10.476;2022-10-30T11:57:51;101262.19;;;18.29;74.43
75585;BME280;64162;53.508;10.476;2022-10-30T12:02:51;101258.75;;;18.36;73.51
75585;BME280;64162;53.508;10.476;2022-10-30T12:05:38;101261.09;;;18.39;74.87
75585;BME280;64162;53.508;10.476;2022-10-30T12:10:36;101265.63;;;18.47;73.55
75585;BME280;64162;53.508;10.476;2022-10-30T12:13:04;101264.81;;;18.46;74.90
75585;BME280;64162;53.508;10.476;2022-10-30T12:15:36;101256.44;;;18.49;74.12
75585;BME280;64162;53.508;10.476;2022-10-30T12:18:04;101256.28;;;18.51;74.34
75585;BME280;64162;53.508;10.476;2022-10-30T12:20:30;101259.47;;;18.55;73.32
75585;BME280;64162;53.508;10.476;2022-10-30T12:22:57;101264.13;;;18.53;73.25
75585;BME280;64162;53.508;10.476;2022-10-30T12:25:27;101265.28;;;18.50;73.01
75585;BME280;64162;53.508;10.476;2022-10-30T12:28:04;101265.81;;;18.54;72.97
75585;BME280;64162;53.508;10.476;2022-10-30T12:30:36;101265.50;;;18.57;72.72
75585;BME280;64162;53.508;10.476;2022-10-30T12:33:12;101261.81;;;18.58;71.93
75585;BME280;64162;53.508;10.476;2022-10-30T12:35:45;101259.47;;;18.55;71.91
75585;BME280;64162;53.508;10.476;2022-10-30T12:38:27;101257.47;;;18.57;72.64
75585;BME280;64162;53.508;10.476;2022-10-30T12:41:26;101254.66;;;18.58;72.21
75585;BME280;64162;53.508;10.476;2022-10-30T12:44:09;101257.16;;;18.60;71.68
75585;BME280;64162;53.508;10.476;2022-10-30T12:46:41;101259.69;;;18.61;71.90
75585;BME280;64162;53.508;10.476;2022-10-30T12:49:39;101259.00;;;18.59;71.85
75585;BME280;64162;53.508;10.476;2022-10-30T12:52:11;101252.69;;;18.60;71.95
75585;BME280;64162;53.508;10.476;2022-10-30T12:57:14;101259.53;;;18.63;72.23
75585;BME280;64162;53.508;10.476;2022-10-30T13:05:27;101254.22;;;18.63;71.67
75585;BME280;64162;53.508;10.476;2022-10-30T13:10:57;101251.53;;;18.63;72.50
75585;BME280;64162;53.508;10.476;2022-10-30T13:13:35;101246.19;;;18.63;72.46
75585;BME280;64162;53.508;10.476;2022-10-30T13:16:05;101240.69;;;18.64;71.64
75585;BME280;64162;53.508;10.476;2022-10-30T13:18:33;101246.88;;;18.65;71.53
75585;BME280;64162;53.508;10.476;2022-10-30T13:23:57;101249.88;;;18.62;71.62
75585;BME280;64162;53.508;10.476;2022-10-30T13:26:35;101253.88;;;18.66;71.58
75585;BME280;64162;53.508;10.476;2022-10-30T13:31:45;101247.22;;;18.70;70.60
75585;BME280;64162;53.508;10.476;2022-10-30T13:42:24;101244.91;;;18.75;71.07
75585;BME280;64162;53.508;10.476;2022-10-30T13:50:49;101245.44;;;18.78;70.85
75585;BME280;64162;53.508;10.476;2022-10-30T13:53:22;101256.78;;;18.80;70.69
75585;BME280;64162;53.508;10.476;2022-10-30T13:55:49;101250.59;;;18.80;71.28
75585;BME280;64162;53.508;10.476;2022-10-30T13:58:30;101251.28;;;18.82;70.53
75585;BME280;64162;53.508;10.476;2022-10-30T14:06:14;101263.81;;;18.82;70.52
75585;BME280;64162;53.508;10.476;2022-10-30T14:09:08;101263.28;;;18.78;70.58
75585;BME280;64162;53.508;10.476;2022-10-30T14:11:36;101267.09;;;18.75;70.65
75585;BME280;64162;53.508;10.476;2022-10-30T14:14:27;101264.91;;;18.71;71.41
75585;BME280;64162;53.508;10.476;2022-10-30T14:17:13;101264.56;;;18.66;71.67
75585;BME280;64162;53.508;10.476;2022-10-30T14:20:20;101265.03;;;18.61;71.92
75585;BME280;64162;53.508;10.476;2022-10-30T14:28:31;101248.81;;;18.55;71.87
75585;BME280;64162;53.508;10.476;2022-10-30T14:34:43;101250.63;;;18.54;71.77
75585;BME280;64162;53.508;10.476;2022-10-30T14:37:09;101254.13;;;18.46;72.09
75585;BME280;64162;53.508;10.476;2022-10-30T14:39:42;101256.91;;;18.37;72.47
75585;BME280;64162;53.508;10.476;2022-10-30T14:53:16;101249.22;;;17.82;74.80
75585;BME280;64162;53.508;10.476;2022-10-30T14:58:35;101247.69;;;17.62;75.40